sensor_id;sensor_type;location;lat;lon;timestamp;P1;durP1;ratioP1;P2;durP2;ratioP2
7460;SDS011;6757;52.258;12.840;2023-04-01T00:00:35;0.82;;;0.57;;
7460;SDS011;6757;52.258;12.840;2023-04-01T00:03:02;1.08;;;0.98;;
7460;SDS011;6757;52.258;12.840;2023-04-01T00:05:29;0.47;;;0.47;;
7460;SDS011;6757;52.258;12.840;2023-04-01T00:07:55;3.63;;;1.63;;
7460;SDS011;6757;52.258;12.840;2023-04-01T00:10:24;2.00;;;1.23;;
7460;SDS011;6757;52.258;12.840;2023-04-01T00:12:51;0.35;;;0.35;;
7460;SDS011;6757;52.258;12.840;2023-04-01T00:15:18;1.27;;;0.80;;
7460;SDS011;6757;52.258;12.840;2023-04-01T00:17:45;0.40;;;0.40;;
7460;SDS011;6757;52.258;12.840;2023-04-01T00:20:13;0.75;;;0.52;;
7460;SDS011;6757;52.258;12.840;2023-04-01T00:22:40;3.35;;;0.82;;
7460;SDS011;6757;52.258;12.840;2023-04-01T00:25:07;0.95;;;0.80;;
7460;SDS011;6757;52.258;12.840;2023-04-01T00:27:37;1.85;;;0.75;;
7460;SDS011;6757;52.258;12.840;2023-04-01T00:30:04;2.25;;;0.82;;
7460;SDS011;6757;52.258;12.840;2023-04-01T00:32:32;1.08;;;0.70;;
7460;SDS011;6757;52.258;12.840;2023-04-01T00:34:59;3.17;;;1.58;;
7460;SDS011;6757;52.258;12.840;2023-04-01T00:37:27;1.77;;;0.88;;
7460;SDS011;6757;52.258;12.840;2023-04-01T00:39:54;0.60;;;0.55;;
7460;SDS011;6757;52.258;12.840;2023-04-01T00:42:22;1.55;;;0.93;;
7460;SDS011;6757;52.258;12.840;2023-04-01T00:44:52;0.70;;;0.70;;
7460;SDS011;6757;52.258;12.840;2023-04-01T00:47:20;1.08;;;0.90;;
7460;SDS011;6757;52.258;12.840;2023-04-01T00:49:50;1.17;;;0.77;;
7460;SDS011;6757;52.258;12.840;2023-04-01T00:52:21;0.90;;;0.60;;
7460;SDS011;6757;52.258;12.840;2023-04-01T00:54:52;0.65;;;0.65;;
7460;SDS011;6757;52.258;12.840;2023-04-01T00:57:24;1.52;;;0.80;;
7460;SDS011;6757;52.258;12.840;2023-04-01T00:59:55;1.00;;;0.82;;
7460;SDS011;6757;52.258;12.840;2023-04-01T01:02:24;0.65;;;0.65;;
7460;SDS011;6757;52.258;12.840;2023-04-01T01:04:51;0.68;;;0.68;;
7460;SDS011;6757;52.258;12.840;2023-04-01T01:07:20;0.47;;;0.38;;
7460;SDS011;6757;52.258;12.840;2023-04-01T01:09:57;0.85;;;0.70;;
7460;SDS011;6757;52.258;12.840;2023-04-01T01:12:34;1.05;;;0.75;;
7460;SDS011;6757;52.258;12.840;2023-04-01T01:15:11;0.73;;;0.60;;
7460;SDS011;6757;52.258;12.840;2023-04-01T01:17:44;0.73;;;0.45;;
7460;SDS011;6757;52.258;12.840;2023-04-01T01:20:30;2.13;;;0.98;;
7460;SDS011;6757;52.258;12.840;2023-04-01T01:26:39;2.30;;;0.90;;
7460;SDS011;6757;52.258;12.840;2023-04-01T01:29:22;1.05;;;0.80;;
7460;SDS011;6757;52.258;12.840;2023-04-01T01:32:31;0.50;;;0.50;;
7460;SDS011;6757;52.258;12.840;2023-04-01T01:35:18;2.20;;;0.75;;
7460;SDS011;6757;52.258;12.840;2023-04-01T01:37:49;1.50;;;0.70;;
7460;SDS011;6757;52.258;12.840;2023-04-01T01:40:20;3.85;;;1.55;;
7460;SDS011;6757;52.258;12.840;2023-04-01T01:42:50;1.80;;;1.10;;
7460;SDS011;6757;52.258;12.840;2023-04-01T01:45:21;2.13;;;1.23;;
7460;SDS011;6757;52.258;12.840;2023-04-01T01:47:52;0.63;;;0.63;;
7460;SDS011;6757;52.258;12.840;2023-04-01T01:50:22;0.70;;;0.65;;
7460;SDS011;6757;52.258;12.840;2023-04-01T01:52:59;1.30;;;1.10;;
7460;SDS011;6757;52.258;12.840;2023-04-01T01:55:29;1.08;;;0.43;;
7460;SDS011;6757;52.258;12.840;2023-04-01T01:57:59;1.55;;;0.88;;
7460;SDS011;6757;52.258;12.840;2023-04-01T02:00:30;1.17;;;1.13;;
7460;SDS011;6757;52.258;12.840;2023-04-01T02:02:58;0.40;;;0.40;;
7460;SDS011;6757;52.258;12.840;2023-04-01T02:05:28;3.30;;;1.35;;
7460;SDS011;6757;52.258;12.840;2023-04-01T02:07:58;2.05;;;1.00;;
7460;SDS011;6757;52.258;12.840;2023-04-01T02:10:31;1.20;;;0.43;;
7460;SDS011;6757;52.258;12.840;2023-04-01T02:13:05;3.42;;;1.55;;
7460;SDS011;6757;52.258;12.840;2023-04-01T02:15:41;0.88;;;0.60;;
7460;SDS011;6757;52.258;12.840;2023-04-01T02:18:12;1.40;;;0.98;;
7460;SDS011;6757;52.258;12.840;2023-04-01T02:20:42;1.52;;;1.20;;
7460;SDS011;6757;52.258;12.840;2023-04-01T02:23:10;1.25;;;0.85;;
7460;SDS011;6757;52.258;12.840;2023-04-01T02:25:37;2.67;;;1.40;;
7460;SDS011;6757;52.258;12.840;2023-04-01T02:28:07;0.93;;;0.93;;
7460;SDS011;6757;52.258;12.840;2023-04-01T02:30:37;0.68;;;0.68;;
7460;SDS011;6757;52.258;12.840;2023-04-01T02:33:07;1.00;;;0.85;;
7460;SDS011;6757;52.258;12.840;2023-04-01T02:35:35;1.48;;;0.90;;
7460;SDS011;6757;52.258;12.840;2023-04-01T02:38:04;4.47;;;1.35;;
7460;SDS011;6757;52.258;12.840;2023-04-01T02:40:41;1.08;;;0.70;;
7460;SDS011;6757;52.258;12.840;2023-04-01T02:43:10;0.25;;;0.25;;
7460;SDS011;6757;52.258;12.840;2023-04-01T02:45:37;1.80;;;1.10;;
7460;SDS011;6757;52.258;12.840;2023-04-01T02:48:04;1.35;;;0.88;;
7460;SDS011;6757;52.258;12.840;2023-04-01T02:50:31;2.10;;;0.88;;
7460;SDS011;6757;52.258;12.840;2023-04-01T02:52:59;2.45;;;0.95;;
7460;SDS011;6757;52.258;12.840;2023-04-01T02:55:29;1.88;;;1.25;;
7460;SDS011;6757;52.258;12.840;2023-04-01T02:57:56;1.75;;;0.50;;
7460;SDS011;6757;52.258;12.840;2023-04-01T03:00:23;0.65;;;0.52;;
7460;SDS011;6757;52.258;12.840;2023-04-01T03:02:50;0.65;;;0.55;;
7460;SDS011;6757;52.258;12.840;2023-04-01T03:05:17;1.75;;;0.88;;
7460;SDS011;6757;52.258;12.840;2023-04-01T03:07:44;0.45;;;0.45;;
7460;SDS011;6757;52.258;12.840;2023-04-01T03:10:12;0.63;;;0.55;;
7460;SDS011;6757;52.258;12.840;2023-04-01T03:12:40;3.75;;;0.98;;
7460;SDS011;6757;52.258;12.840;2023-04-01T03:15:08;2.22;;;0.85;;
7460;SDS011;6757;52.258;12.840;2023-04-01T03:17:37;1.98;;;0.75;;
7460;SDS011;6757;52.258;12.840;2023-04-01T03:20:04;2.00;;;1.33;;
7460;SDS011;6757;52.258;12.840;2023-04-01T03:22:33;1.23;;;0.77;;
7460;SDS011;6757;52.258;12.840;2023-04-01T03:25:00;1.35;;;0.90;;
7460;SDS011;6757;52.258;12.840;2023-04-01T03:27:27;1.42;;;1.27;;
7460;SDS011;6757;52.258;12.840;2023-04-01T03:29:55;0.52;;;0.52;;
7460;SDS011;6757;52.258;12.840;2023-04-01T03:32:22;6.57;;;0.85;;
7460;SDS011;6757;52.258;12.840;2023-04-01T03:34:49;2.25;;;0.65;;
7460;SDS011;6757;52.258;12.840;2023-04-01T03:37:16;1.88;;;1.27;;
7460;SDS011;6757;52.258;12.840;2023-04-01T03:39:43;1.75;;;1.13;;
7460;SDS011;6757;52.258;12.840;2023-04-01T03:42:10;1.10;;;0.85;;
7460;SDS011;6757;52.258;12.840;2023-04-01T03:44:38;0.82;;;0.70;;
7460;SDS011;6757;52.258;12.840;2023-04-01T03:47:06;2.40;;;1.45;;
7460;SDS011;6757;52.258;12.840;2023-04-01T03:49:34;1.40;;;0.85;;
7460;SDS011;6757;52.258;12.840;2023-04-01T03:52:01;0.70;;;0.70;;
7460;SDS011;6757;52.258;12.840;2023-04-01T03:54:28;0.70;;;0.70;;
7460;SDS011;6757;52.258;12.840;2023-04-01T03:56:55;2.75;;;0.98;;
7460;SDS011;6757;52.258;12.840;2023-04-01T03:59:22;0.75;;;0.63;;
7460;SDS011;6757;52.258;12.840;2023-04-01T04:01:49;2.10;;;1.00;;
7460;SDS011;6757;52.258;12.840;2023-04-01T04:04:17;2.47;;;0.75;;
7460;SDS011;6757;52.258;12.840;2023-04-01T04:06:45;1.40;;;0.80;;
7460;SDS011;6757;52.258;12.840;2023-04-01T04:09:11;3.00;;;1.65;;
7460;SDS011;6757;52.258;12.840;2023-04-01T04:11:38;3.50;;;1.02;;
7460;SDS011;6757;52.258;12.840;2023-04-01T04:14:05;0.70;;;0.70;;
7460;SDS011;6757;52.258;12.840;2023-04-01T04:16:34;1.08;;;0.88;;
7460;SDS011;6757;52.258;12.840;2023-04-01T04:19:02;2.15;;;0.80;;
7460;SDS011;6757;52.258;12.840;2023-04-01T04:21:31;0.77;;;0.77;;
7460;SDS011;6757;52.258;12.840;2023-04-01T04:23:58;2.63;;;1.00;;
7460;SDS011;6757;52.258;12.840;2023-04-01T04:26:25;0.63;;;0.60;;
7460;SDS011;6757;52.258;12.840;2023-04-01T04:28:53;1.90;;;0.90;;
7460;SDS011;6757;52.258;12.840;2023-04-01T04:31:21;2.25;;;0.98;;
7460;SDS011;6757;52.258;12.840;2023-04-01T04:33:49;0.65;;;0.65;;
7460;SDS011;6757;52.258;12.840;2023-04-01T04:36:16;1.75;;;0.90;;
7460;SDS011;6757;52.258;12.840;2023-04-01T04:38:45;2.80;;;1.08;;
7460;SDS011;6757;52.258;12.840;2023-04-01T04:41:12;0.38;;;0.38;;
7460;SDS011;6757;52.258;12.840;2023-04-01T04:43:47;1.23;;;0.77;;
7460;SDS011;6757;52.258;12.840;2023-04-01T04:46:17;2.13;;;1.13;;
7460;SDS011;6757;52.258;12.840;2023-04-01T04:48:44;1.15;;;0.98;;
7460;SDS011;6757;52.258;12.840;2023-04-01T04:51:13;2.38;;;1.13;;
7460;SDS011;6757;52.258;12.840;2023-04-01T04:53:41;0.88;;;0.45;;
7460;SDS011;6757;52.258;12.840;2023-04-01T04:56:09;0.68;;;0.68;;
7460;SDS011;6757;52.258;12.840;2023-04-01T04:58:37;2.38;;;0.85;;
7460;SDS011;6757;52.258;12.840;2023-04-01T05:01:05;0.35;;;0.35;;
7460;SDS011;6757;52.258;12.840;2023-04-01T05:03:34;1.23;;;0.75;;
7460;SDS011;6757;52.258;12.840;2023-04-01T05:06:01;1.25;;;1.13;;
7460;SDS011;6757;52.258;12.840;2023-04-01T05:08:28;1.02;;;0.70;;
7460;SDS011;6757;52.258;12.840;2023-04-01T05:10:55;3.03;;;1.25;;
7460;SDS011;6757;52.258;12.840;2023-04-01T05:13:23;3.53;;;1.42;;
7460;SDS011;6757;52.258;12.840;2023-04-01T05:15:50;2.10;;;1.25;;
7460;SDS011;6757;52.258;12.840;2023-04-01T05:18:17;3.63;;;1.35;;
7460;SDS011;6757;52.258;12.840;2023-04-01T05:20:47;1.80;;;0.82;;
7460;SDS011;6757;52.258;12.840;2023-04-01T05:25:43;1.52;;;0.95;;
7460;SDS011;6757;52.258;12.840;2023-04-01T05:28:10;0.95;;;0.77;;
7460;SDS011;6757;52.258;12.840;2023-04-01T05:30:40;2.92;;;0.88;;
7460;SDS011;6757;52.258;12.840;2023-04-01T05:33:08;3.25;;;1.95;;
7460;SDS011;6757;52.258;12.840;2023-04-01T05:35:35;1.45;;;1.08;;
7460;SDS011;6757;52.258;12.840;2023-04-01T05:38:02;0.85;;;0.85;;
7460;SDS011;6757;52.258;12.840;2023-04-01T05:40:29;2.70;;;1.50;;
7460;SDS011;6757;52.258;12.840;2023-04-01T05:42:57;2.15;;;1.05;;
7460;SDS011;6757;52.258;12.840;2023-04-01T05:45:24;1.75;;;1.08;;
7460;SDS011;6757;52.258;12.840;2023-04-01T05:47:54;2.75;;;1.05;;
7460;SDS011;6757;52.258;12.840;2023-04-01T05:50:21;0.88;;;0.88;;
7460;SDS011;6757;52.258;12.840;2023-04-01T05:52:48;0.73;;;0.73;;
7460;SDS011;6757;52.258;12.840;2023-04-01T05:55:15;5.53;;;1.45;;
7460;SDS011;6757;52.258;12.840;2023-04-01T05:57:42;3.05;;;1.65;;
7460;SDS011;6757;52.258;12.840;2023-04-01T06:00:11;0.88;;;0.80;;
7460;SDS011;6757;52.258;12.840;2023-04-01T06:02:39;2.47;;;1.30;;
7460;SDS011;6757;52.258;12.840;2023-04-01T06:05:16;2.65;;;1.23;;
7460;SDS011;6757;52.258;12.840;2023-04-01T06:07:46;1.52;;;1.23;;
7460;SDS011;6757;52.258;12.840;2023-04-01T06:10:14;1.20;;;1.10;;
7460;SDS011;6757;52.258;12.840;2023-04-01T06:12:51;0.77;;;0.70;;
7460;SDS011;6757;52.258;12.840;2023-04-01T06:15:30;2.03;;;1.08;;
7460;SDS011;6757;52.258;12.840;2023-04-01T06:18:19;1.05;;;1.05;;
7460;SDS011;6757;52.258;12.840;2023-04-01T06:21:21;3.88;;;1.02;;
7460;SDS011;6757;52.258;12.840;2023-04-01T06:24:27;1.50;;;0.93;;
7460;SDS011;6757;52.258;12.840;2023-04-01T06:27:12;0.80;;;0.80;;
7460;SDS011;6757;52.258;12.840;2023-04-01T06:29:50;0.88;;;0.73;;
7460;SDS011;6757;52.258;12.840;2023-04-01T06:32:37;3.05;;;1.58;;
7460;SDS011;6757;52.258;12.840;2023-04-01T06:35:41;3.13;;;1.48;;
7460;SDS011;6757;52.258;12.840;2023-04-01T06:38:29;1.85;;;0.98;;
7460;SDS011;6757;52.258;12.840;2023-04-01T06:41:19;1.75;;;1.25;;
7460;SDS011;6757;52.258;12.840;2023-04-01T06:44:06;0.77;;;0.77;;
7460;SDS011;6757;52.258;12.840;2023-04-01T06:46:44;3.55;;;1.67;;
7460;SDS011;6757;52.258;12.840;2023-04-01T06:49:20;2.08;;;1.17;;
7460;SDS011;6757;52.258;12.840;2023-04-01T06:51:59;5.22;;;0.98;;
7460;SDS011;6757;52.258;12.840;2023-04-01T06:54:34;2.28;;;1.20;;
7460;SDS011;6757;52.258;12.840;2023-04-01T06:57:05;4.57;;;1.55;;
7460;SDS011;6757;52.258;12.840;2023-04-01T06:59:48;1.60;;;0.90;;
7460;SDS011;6757;52.258;12.840;2023-04-01T07:02:18;2.17;;;1.40;;
7460;SDS011;6757;52.258;12.840;2023-04-01T07:04:53;1.90;;;1.17;;
7460;SDS011;6757;52.258;12.840;2023-04-01T07:07:24;1.15;;;0.98;;
7460;SDS011;6757;52.258;12.840;2023-04-01T07:10:00;2.08;;;1.15;;
7460;SDS011;6757;52.258;12.840;2023-04-01T07:12:35;2.47;;;1.33;;
7460;SDS011;6757;52.258;12.840;2023-04-01T07:15:11;3.40;;;1.48;;
7460;SDS011;6757;52.258;12.840;2023-04-01T07:17:45;1.83;;;1.13;;
7460;SDS011;6757;52.258;12.840;2023-04-01T07:20:17;2.50;;;1.17;;
7460;SDS011;6757;52.258;12.840;2023-04-01T07:22:49;3.17;;;1.45;;
7460;SDS011;6757;52.258;12.840;2023-04-01T07:25:21;1.75;;;0.88;;
7460;SDS011;6757;52.258;12.840;2023-04-01T07:27:52;0.88;;;0.88;;
7460;SDS011;6757;52.258;12.840;2023-04-01T07:30:22;0.82;;;0.57;;
7460;SDS011;6757;52.258;12.840;2023-04-01T07:32:51;7.55;;;1.38;;
7460;SDS011;6757;52.258;12.840;2023-04-01T07:35:23;2.88;;;1.58;;
7460;SDS011;6757;52.258;12.840;2023-04-01T07:37:59;3.08;;;1.23;;
7460;SDS011;6757;52.258;12.840;2023-04-01T07:40:41;1.02;;;1.02;;
7460;SDS011;6757;52.258;12.840;2023-04-01T07:43:18;2.97;;;1.63;;
7460;SDS011;6757;52.258;12.840;2023-04-01T07:46:09;1.00;;;0.95;;
7460;SDS011;6757;52.258;12.840;2023-04-01T07:48:52;1.83;;;1.20;;
7460;SDS011;6757;52.258;12.840;2023-04-01T07:51:27;1.55;;;1.10;;
7460;SDS011;6757;52.258;12.840;2023-04-01T07:54:01;2.15;;;1.38;;
7460;SDS011;6757;52.258;12.840;2023-04-01T07:56:37;1.42;;;1.17;;
7460;SDS011;6757;52.258;12.840;2023-04-01T07:59:13;3.38;;;1.17;;
7460;SDS011;6757;52.258;12.840;2023-04-01T08:01:52;5.68;;;1.23;;
7460;SDS011;6757;52.258;12.840;2023-04-01T08:04:36;1.98;;;1.52;;
7460;SDS011;6757;52.258;12.840;2023-04-01T08:07:17;2.80;;;1.23;;
7460;SDS011;6757;52.258;12.840;2023-04-01T08:09:48;1.75;;;0.88;;
7460;SDS011;6757;52.258;12.840;2023-04-01T08:12:27;2.05;;;1.13;;
7460;SDS011;6757;52.258;12.840;2023-04-01T08:15:09;1.38;;;1.20;;
7460;SDS011;6757;52.258;12.840;2023-04-01T08:17:48;2.72;;;1.05;;
7460;SDS011;6757;52.258;12.840;2023-04-01T08:20:32;1.15;;;1.05;;
7460;SDS011;6757;52.258;12.840;2023-04-01T08:23:06;4.07;;;1.13;;
7460;SDS011;6757;52.258;12.840;2023-04-01T08:25:40;3.53;;;1.35;;
7460;SDS011;6757;52.258;12.840;2023-04-01T08:28:17;1.58;;;0.82;;
7460;SDS011;6757;52.258;12.840;2023-04-01T08:30:51;2.20;;;1.13;;
7460;SDS011;6757;52.258;12.840;2023-04-01T08:33:24;8.30;;;1.40;;
7460;SDS011;6757;52.258;12.840;2023-04-01T08:35:54;1.13;;;1.00;;
7460;SDS011;6757;52.258;12.840;2023-04-01T08:38:26;6.10;;;1.20;;
7460;SDS011;6757;52.258;12.840;2023-04-01T08:41:00;2.03;;;1.08;;
7460;SDS011;6757;52.258;12.840;2023-04-01T08:44:02;1.13;;;0.98;;
7460;SDS011;6757;52.258;12.840;2023-04-01T08:46:57;2.83;;;1.73;;
7460;SDS011;6757;52.258;12.840;2023-04-01T08:49:48;1.73;;;1.25;;
7460;SDS011;6757;52.258;12.840;2023-04-01T08:52:46;0.85;;;0.85;;
7460;SDS011;6757;52.258;12.840;2023-04-01T08:55:34;1.60;;;0.75;;
7460;SDS011;6757;52.258;12.840;2023-04-01T09:04:17;1.48;;;0.90;;
7460;SDS011;6757;52.258;12.840;2023-04-01T09:07:03;0.50;;;0.50;;
7460;SDS011;6757;52.258;12.840;2023-04-01T09:13:15;1.00;;;1.00;;
7460;SDS011;6757;52.258;12.840;2023-04-01T09:16:17;1.55;;;0.75;;
7460;SDS011;6757;52.258;12.840;2023-04-01T09:18:59;1.45;;;0.98;;
7460;SDS011;6757;52.258;12.840;2023-04-01T09:21:46;0.73;;;0.73;;
7460;SDS011;6757;52.258;12.840;2023-04-01T09:24:52;0.93;;;0.68;;
7460;SDS011;6757;52.258;12.840;2023-04-01T09:27:48;0.88;;;0.80;;
7460;SDS011;6757;52.258;12.840;2023-04-01T09:30:32;0.75;;;0.75;;
7460;SDS011;6757;52.258;12.840;2023-04-01T09:33:27;1.30;;;0.88;;
7460;SDS011;6757;52.258;12.840;2023-04-01T09:36:38;0.77;;;0.77;;
7460;SDS011;6757;52.258;12.840;2023-04-01T09:45:07;1.30;;;1.00;;
7460;SDS011;6757;52.258;12.840;2023-04-01T09:47:51;0.75;;;0.68;;
7460;SDS011;6757;52.258;12.840;2023-04-01T09:50:35;1.45;;;0.68;;
7460;SDS011;6757;52.258;12.840;2023-04-01T09:53:19;1.45;;;0.30;;
7460;SDS011;6757;52.258;12.840;2023-04-01T09:56:19;1.33;;;1.02;;
7460;SDS011;6757;52.258;12.840;2023-04-01T09:59:14;0.82;;;0.52;;
7460;SDS011;6757;52.258;12.840;2023-04-01T10:02:27;1.20;;;1.10;;
7460;SDS011;6757;52.258;12.840;2023-04-01T10:16:10;0.30;;;0.30;;
7460;SDS011;6757;52.258;12.840;2023-04-01T10:19:14;0.50;;;0.50;;
7460;SDS011;6757;52.258;12.840;2023-04-01T10:22:17;0.30;;;0.30;;
7460;SDS011;6757;52.258;12.840;2023-04-01T10:25:50;0.47;;;0.47;;
7460;SDS011;6757;52.258;12.840;2023-04-01T10:29:01;1.10;;;0.40;;
7460;SDS011;6757;52.258;12.840;2023-04-01T10:32:24;0.70;;;0.70;;
7460;SDS011;6757;52.258;12.840;2023-04-01T10:38:32;0.85;;;0.85;;
7460;SDS011;6757;52.258;12.840;2023-04-01T10:41:34;0.95;;;0.50;;
7460;SDS011;6757;52.258;12.840;2023-04-01T10:44:37;0.30;;;0.30;;
7460;SDS011;6757;52.258;12.840;2023-04-01T10:48:02;0.90;;;0.50;;
7460;SDS011;6757;52.258;12.840;2023-04-01T10:56:56;0.80;;;0.40;;
7460;SDS011;6757;52.258;12.840;2023-04-01T10:59:36;0.40;;;0.40;;
7460;SDS011;6757;52.258;12.840;2023-04-01T11:09:49;0.40;;;0.40;;
7460;SDS011;6757;52.258;12.840;2023-04-01T11:16:23;0.75;;;0.55;;
7460;SDS011;6757;52.258;12.840;2023-04-01T11:19:47;0.90;;;0.40;;
7460;SDS011;6757;52.258;12.840;2023-04-01T11:26:04;0.40;;;0.40;;
7460;SDS011;6757;52.258;12.840;2023-04-01T11:28:40;0.40;;;0.40;;
7460;SDS011;6757;52.258;12.840;2023-04-01T11:31:33;0.85;;;0.40;;
7460;SDS011;6757;52.258;12.840;2023-04-01T11:34:13;0.75;;;0.75;;
7460;SDS011;6757;52.258;12.840;2023-04-01T11:36:57;1.73;;;0.90;;
7460;SDS011;6757;52.258;12.840;2023-04-01T11:39:37;1.00;;;0.90;;
7460;SDS011;6757;52.258;12.840;2023-04-01T11:42:17;0.80;;;0.75;;
7460;SDS011;6757;52.258;12.840;2023-04-01T11:44:58;0.63;;;0.63;;
7460;SDS011;6757;52.258;12.840;2023-04-01T11:47:57;1.38;;;1.30;;
7460;SDS011;6757;52.258;12.840;2023-04-01T11:50:38;1.23;;;1.23;;
7460;SDS011;6757;52.258;12.840;2023-04-01T11:53:27;2.10;;;1.30;;
7460;SDS011;6757;52.258;12.840;2023-04-01T11:56:11;3.25;;;1.48;;
7460;SDS011;6757;52.258;12.840;2023-04-01T11:58:54;4.93;;;2.13;;
7460;SDS011;6757;52.258;12.840;2023-04-01T12:01:37;7.25;;;2.17;;
7460;SDS011;6757;52.258;12.840;2023-04-01T12:04:32;3.53;;;1.60;;
7460;SDS011;6757;52.258;12.840;2023-04-01T12:07:23;4.35;;;1.92;;
7460;SDS011;6757;52.258;12.840;2023-04-01T12:10:13;2.22;;;1.45;;
7460;SDS011;6757;52.258;12.840;2023-04-01T12:12:48;5.88;;;2.38;;
7460;SDS011;6757;52.258;12.840;2023-04-01T12:15:23;3.75;;;1.88;;
7460;SDS011;6757;52.258;12.840;2023-04-01T12:18:05;2.45;;;1.50;;
7460;SDS011;6757;52.258;12.840;2023-04-01T12:20:45;1.80;;;1.10;;
7460;SDS011;6757;52.258;12.840;2023-04-01T12:23:22;3.33;;;1.52;;
7460;SDS011;6757;52.258;12.840;2023-04-01T12:26:30;3.20;;;1.67;;
7460;SDS011;6757;52.258;12.840;2023-04-01T12:29:21;1.90;;;1.30;;
7460;SDS011;6757;52.258;12.840;2023-04-01T12:32:09;2.58;;;1.60;;
7460;SDS011;6757;52.258;12.840;2023-04-01T12:34:53;2.72;;;1.45;;
7460;SDS011;6757;52.258;12.840;2023-04-01T12:37:41;3.33;;;1.23;;
7460;SDS011;6757;52.258;12.840;2023-04-01T12:40:31;2.92;;;1.45;;
7460;SDS011;6757;52.258;12.840;2023-04-01T12:46:32;1.67;;;1.17;;
7460;SDS011;6757;52.258;12.840;2023-04-01T12:49:27;2.15;;;1.17;;
7460;SDS011;6757;52.258;12.840;2023-04-01T12:52:12;2.78;;;1.30;;
7460;SDS011;6757;52.258;12.840;2023-04-01T12:58:20;3.25;;;1.38;;
7460;SDS011;6757;52.258;12.840;2023-04-01T13:01:49;4.38;;;1.75;;
7460;SDS011;6757;52.258;12.840;2023-04-01T13:04:39;2.65;;;0.82;;
7460;SDS011;6757;52.258;12.840;2023-04-01T13:08:00;3.10;;;1.42;;
7460;SDS011;6757;52.258;12.840;2023-04-01T13:10:46;2.50;;;1.45;;
7460;SDS011;6757;52.258;12.840;2023-04-01T13:13:43;2.70;;;1.27;;
7460;SDS011;6757;52.258;12.840;2023-04-01T13:16:46;4.45;;;1.83;;
7460;SDS011;6757;52.258;12.840;2023-04-01T13:19:21;5.10;;;2.08;;
7460;SDS011;6757;52.258;12.840;2023-04-01T13:21:56;3.53;;;1.80;;
7460;SDS011;6757;52.258;12.840;2023-04-01T13:24:36;2.67;;;1.75;;
7460;SDS011;6757;52.258;12.840;2023-04-01T13:27:14;4.32;;;1.98;;
7460;SDS011;6757;52.258;12.840;2023-04-01T13:29:57;2.47;;;1.40;;
7460;SDS011;6757;52.258;12.840;2023-04-01T13:32:41;6.20;;;2.58;;
7460;SDS011;6757;52.258;12.840;2023-04-01T13:35:19;1.35;;;1.15;;
7460;SDS011;6757;52.258;12.840;2023-04-01T13:41:15;2.75;;;1.70;;
7460;SDS011;6757;52.258;12.840;2023-04-01T13:43:56;3.05;;;1.17;;
7460;SDS011;6757;52.258;12.840;2023-04-01T13:46:39;1.08;;;1.00;;
7460;SDS011;6757;52.258;12.840;2023-04-01T13:49:23;4.40;;;1.70;;
7460;SDS011;6757;52.258;12.840;2023-04-01T13:58:22;2.08;;;1.40;;
7460;SDS011;6757;52.258;12.840;2023-04-01T14:01:05;1.50;;;0.90;;
7460;SDS011;6757;52.258;12.840;2023-04-01T14:03:44;1.27;;;0.82;;
7460;SDS011;6757;52.258;12.840;2023-04-01T14:06:57;1.73;;;1.08;;
7460;SDS011;6757;52.258;12.840;2023-04-01T14:12:36;2.10;;;1.77;;
7460;SDS011;6757;52.258;12.840;2023-04-01T14:15:19;3.35;;;1.63;;
7460;SDS011;6757;52.258;12.840;2023-04-01T14:18:14;1.40;;;1.33;;
7460;SDS011;6757;52.258;12.840;2023-04-01T14:21:02;3.13;;;1.30;;
7460;SDS011;6757;52.258;12.840;2023-04-01T14:27:05;3.38;;;1.55;;
7460;SDS011;6757;52.258;12.840;2023-04-01T14:29:56;2.70;;;1.40;;
7460;SDS011;6757;52.258;12.840;2023-04-01T14:32:49;2.70;;;1.95;;
7460;SDS011;6757;52.258;12.840;2023-04-01T14:35:25;4.68;;;2.22;;
7460;SDS011;6757;52.258;12.840;2023-04-01T14:38:06;5.13;;;1.95;;
7460;SDS011;6757;52.258;12.840;2023-04-01T14:40:58;1.55;;;1.23;;
7460;SDS011;6757;52.258;12.840;2023-04-01T14:44:00;5.38;;;2.45;;
7460;SDS011;6757;52.258;12.840;2023-04-01T14:47:04;4.72;;;2.47;;
7460;SDS011;6757;52.258;12.840;2023-04-01T14:50:04;1.85;;;1.67;;
7460;SDS011;6757;52.258;12.840;2023-04-01T14:52:36;3.58;;;2.00;;
7460;SDS011;6757;52.258;12.840;2023-04-01T14:55:15;5.07;;;2.17;;
7460;SDS011;6757;52.258;12.840;2023-04-01T14:57:58;6.20;;;2.05;;
7460;SDS011;6757;52.258;12.840;2023-04-01T15:00:41;4.53;;;2.05;;
7460;SDS011;6757;52.258;12.840;2023-04-01T15:03:28;3.58;;;2.20;;
7460;SDS011;6757;52.258;12.840;2023-04-01T15:09:06;7.00;;;2.40;;
7460;SDS011;6757;52.258;12.840;2023-04-01T15:11:48;4.88;;;2.13;;
7460;SDS011;6757;52.258;12.840;2023-04-01T15:14:40;3.90;;;2.00;;
7460;SDS011;6757;52.258;12.840;2023-04-01T15:17:20;5.13;;;2.45;;
7460;SDS011;6757;52.258;12.840;2023-04-01T15:20:04;7.57;;;3.60;;
7460;SDS011;6757;52.258;12.840;2023-04-01T15:22:54;7.60;;;2.83;;
7460;SDS011;6757;52.258;12.840;2023-04-01T15:25:43;5.97;;;2.85;;
7460;SDS011;6757;52.258;12.840;2023-04-01T15:28:32;6.65;;;3.30;;
7460;SDS011;6757;52.258;12.840;2023-04-01T15:31:07;6.75;;;2.50;;
7460;SDS011;6757;52.258;12.840;2023-04-01T15:33:44;8.90;;;3.55;;
7460;SDS011;6757;52.258;12.840;2023-04-01T15:36:26;8.23;;;3.25;;
7460;SDS011;6757;52.258;12.840;2023-04-01T15:39:05;7.20;;;3.13;;
7460;SDS011;6757;52.258;12.840;2023-04-01T15:41:42;5.82;;;2.95;;
7460;SDS011;6757;52.258;12.840;2023-04-01T15:44:41;7.22;;;2.67;;
7460;SDS011;6757;52.258;12.840;2023-04-01T15:47:29;6.22;;;2.58;;
7460;SDS011;6757;52.258;12.840;2023-04-01T15:53:03;5.65;;;2.22;;
7460;SDS011;6757;52.258;12.840;2023-04-01T15:55:52;6.82;;;3.28;;
7460;SDS011;6757;52.258;12.840;2023-04-01T15:58:32;8.00;;;3.38;;
7460;SDS011;6757;52.258;12.840;2023-04-01T16:01:15;9.23;;;3.25;;
7460;SDS011;6757;52.258;12.840;2023-04-01T16:03:53;6.95;;;3.53;;
7460;SDS011;6757;52.258;12.840;2023-04-01T16:09:24;7.55;;;2.97;;
7460;SDS011;6757;52.258;12.840;2023-04-01T16:12:30;6.05;;;3.28;;
7460;SDS011;6757;52.258;12.840;2023-04-01T16:15:16;6.50;;;2.95;;
7460;SDS011;6757;52.258;12.840;2023-04-01T16:18:04;7.05;;;2.90;;
7460;SDS011;6757;52.258;12.840;2023-04-01T16:20:50;7.82;;;4.03;;
7460;SDS011;6757;52.258;12.840;2023-04-01T16:23:24;4.00;;;2.50;;
7460;SDS011;6757;52.258;12.840;2023-04-01T16:26:01;11.57;;;3.05;;
7460;SDS011;6757;52.258;12.840;2023-04-01T16:28:36;7.53;;;3.05;;
7460;SDS011;6757;52.258;12.840;2023-04-01T16:31:12;6.55;;;3.47;;
7460;SDS011;6757;52.258;12.840;2023-04-01T16:33:51;7.82;;;3.65;;
7460;SDS011;6757;52.258;12.840;2023-04-01T16:36:26;8.15;;;3.30;;
7460;SDS011;6757;52.258;12.840;2023-04-01T16:39:08;5.97;;;2.50;;
7460;SDS011;6757;52.258;12.840;2023-04-01T16:41:49;7.32;;;3.00;;
7460;SDS011;6757;52.258;12.840;2023-04-01T16:44:26;9.65;;;3.03;;
7460;SDS011;6757;52.258;12.840;2023-04-01T16:46:53;6.10;;;2.72;;
7460;SDS011;6757;52.258;12.840;2023-04-01T16:49:29;8.55;;;3.53;;
7460;SDS011;6757;52.258;12.840;2023-04-01T16:52:15;6.57;;;2.78;;
7460;SDS011;6757;52.258;12.840;2023-04-01T16:55:01;3.80;;;1.80;;
7460;SDS011;6757;52.258;12.840;2023-04-01T16:57:43;6.90;;;3.03;;
7460;SDS011;6757;52.258;12.840;2023-04-01T17:00:19;6.35;;;3.00;;
7460;SDS011;6757;52.258;12.840;2023-04-01T17:02:56;7.20;;;2.45;;
7460;SDS011;6757;52.258;12.840;2023-04-01T17:05:42;7.05;;;2.67;;
7460;SDS011;6757;52.258;12.840;2023-04-01T17:08:23;5.07;;;2.63;;
7460;SDS011;6757;52.258;12.840;2023-04-01T17:11:14;7.93;;;3.38;;
7460;SDS011;6757;52.258;12.840;2023-04-01T17:13:50;7.65;;;2.78;;
7460;SDS011;6757;52.258;12.840;2023-04-01T17:19:41;6.95;;;2.65;;
7460;SDS011;6757;52.258;12.840;2023-04-01T17:24:54;4.97;;;2.20;;
7460;SDS011;6757;52.258;12.840;2023-04-01T17:27:35;4.35;;;3.15;;
7460;SDS011;6757;52.258;12.840;2023-04-01T17:30:16;5.97;;;2.92;;
7460;SDS011;6757;52.258;12.840;2023-04-01T17:33:02;9.85;;;3.97;;
7460;SDS011;6757;52.258;12.840;2023-04-01T17:35:57;6.07;;;2.65;;
7460;SDS011;6757;52.258;12.840;2023-04-01T17:38:47;6.85;;;3.33;;
7460;SDS011;6757;52.258;12.840;2023-04-01T17:41:28;5.80;;;2.92;;
7460;SDS011;6757;52.258;12.840;2023-04-01T17:44:11;7.53;;;3.22;;